Airfield :
LOGIN :

Register | Disclaimer

   EN    FR    IT 

 










Legend :    VFR   Marginal VFR   IFR   Intensive IFR   Very Intensive IFR
Visi :
Ceiling :
>= 8 km
>= 3000ft
5 to 8 km
1000 to 3000 ft
1500m to 5 km
500 to 1000 ft
800 to 1500m
200 to 500 ft
< 800m
< 200 ft
Symbols :   Thunderstorms  Fog  Heavy snow  Heavy precipitations  Wind > 20 kt
SIGMETs :     Misc.  Thunderstorms  Icing  Turbulence  Mountain Waves  Volcanic Ashes







- Airport Elevation : 465 ft
- IATA code : LEJ


EDDP - Leipzig Halle

CURRENT METAR :
  • 211720Z 16005KT 8000 -RA FEW002 SCT028 BKN080 13/13 Q1014 NOSIG

EXPIRED METARs :
  • 211650Z 17006KT 8000 FEW002 OVC022 13/13 Q1014 NOSIG
  • 211620Z 15004KT 6000 -DZRA FEW001 OVC022 13/13 Q1013 REDZ NOSIG
  • 211550Z 20003KT 2500 DZ BKN011 13/13 Q1014 BECMG 5000 NSW BKN015
  • 211520Z 23003KT 200V260 8000 -RA FEW010 SCT017 OVC035 13/13 Q1014 RERA NOSIG
  • 211450Z 25005KT 4500 RA OVC029 13/12 Q1014 BECMG 5000 NSW
  • 211420Z 21008KT 190V260 9999 -RA OVC032 16/10 Q1013 NOSIG

TAF AMD TAF EDDP
Valid from the 21 at 15:00 until the 22 at 12:00 UTC


211528Z 2115/2212 19008KT 9999 BKN040
TEMPO 2115/2117 4500 -DZRA BKN010
BECMG 2209/2212 23015KT
No reported NOTAMs for that airfield.



MET'MAP, your aeronautical weather chart ! - Copyright ORBIFLY December 2007 - Disclaimer

ORBIFLY MET'MAP TEAM :

Programming & Development : Alexandra Zaïnal
Concept & Development : Baudouin d'Aumeries
Co-Development & Prog : Marc-Olivier Méhu
Technical & hardware support : Manuel Goepfert

Contact : metmap@orbifly.com




SOURCES & CREDITS :

   NOAA